Time;durP1;ratioP1;P1;durP2;ratioP2;P2;SDS_P1;SDS_P2;PMS_P1;PMS_P2;Temp;Humidity;BMP_temperature;BMP_pressure;BME280_temperature;BME280_humidity;BME280_pressure;Samples;Min_cycle;Max_cycle;Signal;HPM_P1;HPM_P2
2021/11/24 00:01:56;;;;;;;28.27;19.13;;;6.20;95.00;;;;;;5036582;28;20191;-88
2021/11/24 00:04:22;;;;;;;25.37;18.83;;;6.20;95.00;;;;;;5037094;28;20196;-88
2021/11/24 00:06:48;;;;;;;28.07;18.40;;;6.20;95.00;;;;;;5037022;28;20176;-87
2021/11/24 00:09:13;;;;;;;29.93;20.57;;;6.20;95.00;;;;;;5036667;28;20216;-88
2021/11/24 00:11:39;;;;;;;32.33;21.83;;;6.20;95.00;;;;;;5036337;28;20250;-86
2021/11/24 00:14:05;;;;;;;26.23;19.10;;;6.30;95.00;;;;;;5036312;28;20266;-87
2021/11/24 00:16:31;;;;;;;26.37;20.10;;;6.30;95.00;;;;;;5036104;28;20314;-88
2021/11/24 00:18:56;;;;;;;39.50;20.50;;;6.20;95.00;;;;;;5036164;28;20238;-87
2021/11/24 00:21:22;;;;;;;28.17;20.20;;;6.30;95.00;;;;;;5036326;28;20255;-88
2021/11/24 00:23:47;;;;;;;33.83;20.90;;;6.30;95.00;;;;;;5036059;28;20168;-88
2021/11/24 00:26:14;;;;;;;34.43;20.53;;;6.20;95.00;;;;;;5035997;28;20173;-87
2021/11/24 00:28:40;;;;;;;34.30;21.07;;;6.30;95.00;;;;;;5035782;28;20196;-87
2021/11/24 00:31:06;;;;;;;29.90;20.37;;;6.30;95.00;;;;;;5035947;28;20188;-86
2021/11/24 00:33:32;;;;;;;33.83;22.13;;;6.30;95.00;;;;;;5035924;28;20184;-87
2021/11/24 00:36:00;;;;;;;39.57;22.40;;;6.30;95.00;;;;;;5035781;28;20200;-87
2021/11/24 00:38:25;;;;;;;31.77;20.80;;;6.30;95.00;;;;;;5035873;28;20275;-87
2021/11/24 00:40:51;;;;;;;36.90;21.57;;;6.30;95.00;;;;;;5035672;28;20207;-88
2021/11/24 00:43:17;;;;;;;34.60;20.50;;;6.30;95.00;;;;;;5035659;28;20177;-87
2021/11/24 00:45:43;;;;;;;28.87;20.27;;;6.30;95.00;;;;;;5035063;28;20177;-87
2021/11/24 00:48:08;;;;;;;36.27;21.70;;;6.30;95.00;;;;;;5035480;28;20200;-87
2021/11/24 00:50:34;;;;;;;31.73;21.57;;;6.30;95.00;;;;;;5035524;28;20265;-87
2021/11/24 00:53:00;;;;;;;34.67;21.43;;;6.30;95.10;;;;;;5035727;28;20182;-87
2021/11/24 00:55:26;;;;;;;24.93;20.23;;;6.30;95.10;;;;;;5035614;28;20173;-87
2021/11/24 00:57:51;;;;;;;36.47;21.90;;;6.30;95.10;;;;;;5035255;28;20585;-88
2021/11/24 01:00:17;;;;;;;30.93;22.40;;;6.40;95.10;;;;;;5035556;28;20625;-87
2021/11/24 01:02:44;;;;;;;34.27;22.60;;;6.40;95.10;;;;;;5035224;28;20242;-87
2021/11/24 01:05:11;;;;;;;35.07;21.47;;;6.40;95.20;;;;;;5035141;28;20724;-87
2021/11/24 01:07:37;;;;;;;36.07;21.57;;;6.40;95.10;;;;;;5034903;28;20572;-86
2021/11/24 01:10:05;;;;;;;29.77;20.67;;;6.50;95.10;;;;;;5075523;22;20266;-87
2021/11/24 01:12:30;;;;;;;29.93;20.33;;;6.50;95.20;;;;;;5055065;28;20172;-87
2021/11/24 01:14:56;;;;;;;35.23;20.77;;;6.50;95.20;;;;;;5070527;28;20176;-87
2021/11/24 01:17:21;;;;;;;33.63;20.87;;;6.50;95.20;;;;;;5054819;28;20253;-87
2021/11/24 01:19:47;;;;;;;33.50;20.37;;;6.50;95.20;;;;;;5054886;28;20227;-87
2021/11/24 01:22:13;;;;;;;33.83;21.13;;;6.50;95.20;;;;;;5053648;28;20182;-87
2021/11/24 01:24:39;;;;;;;33.63;22.80;;;6.50;95.20;;;;;;5053583;28;20198;-87
2021/11/24 01:27:04;;;;;;;43.13;23.03;;;6.50;95.20;;;;;;5054303;28;20197;-87
2021/11/24 01:29:30;;;;;;;38.97;23.70;;;6.50;95.20;;;;;;5053488;28;20206;-87
2021/11/24 01:31:56;;;;;;;36.90;22.20;;;6.50;95.30;;;;;;5053475;28;20656;-86
2021/11/24 01:34:21;;;;;;;36.00;23.13;;;6.50;95.30;;;;;;5053478;28;20176;-86
2021/11/24 01:36:47;;;;;;;43.03;23.90;;;6.50;95.30;;;;;;5053275;28;20539;-87
2021/11/24 01:39:12;;;;;;;39.13;23.57;;;6.50;95.40;;;;;;5053348;28;20203;-87
2021/11/24 01:41:38;;;;;;;49.30;27.53;;;6.60;95.50;;;;;;5053294;28;20168;-87
2021/11/24 01:44:04;;;;;;;47.80;25.83;;;6.60;95.60;;;;;;5053189;28;20526;-87
2021/11/24 01:46:30;;;;;;;39.70;25.33;;;6.60;95.60;;;;;;5053257;28;20187;-87
2021/11/24 01:48:56;;;;;;;41.43;24.63;;;6.60;95.70;;;;;;5053175;28;20625;-87
2021/11/24 01:51:22;;;;;;;38.57;24.97;;;6.60;95.70;;;;;;5053107;28;20184;-87
2021/11/24 01:53:48;;;;;;;41.30;25.27;;;6.60;95.70;;;;;;5054339;28;20171;-87
2021/11/24 01:56:14;;;;;;;46.80;26.30;;;6.70;95.70;;;;;;5053300;28;20198;-87
2021/11/24 01:58:41;;;;;;;43.60;24.10;;;6.60;95.80;;;;;;5054172;28;20252;-87
2021/11/24 02:01:07;;;;;;;37.57;24.50;;;6.60;95.80;;;;;;5054197;28;20542;-87
2021/11/24 02:03:33;;;;;;;48.30;24.87;;;6.60;95.80;;;;;;5052910;28;20259;-87
2021/11/24 02:05:58;;;;;;;44.53;25.93;;;6.60;95.80;;;;;;5052723;28;20210;-87
2021/11/24 02:08:24;;;;;;;44.40;24.77;;;6.70;95.80;;;;;;5053798;28;20211;-87
2021/11/24 02:10:50;;;;;;;46.53;26.13;;;6.70;95.80;;;;;;5052799;28;20219;-87
2021/11/24 02:13:16;;;;;;;44.97;26.27;;;6.70;95.80;;;;;;5052769;28;20176;-87
2021/11/24 02:15:42;;;;;;;44.50;26.03;;;6.70;95.90;;;;;;5054074;28;20172;-87
2021/11/24 02:18:09;;;;;;;47.33;26.47;;;6.70;95.90;;;;;;5052540;28;20551;-87
2021/11/24 02:20:34;;;;;;;45.83;26.43;;;6.70;95.90;;;;;;5053788;28;20652;-87
2021/11/24 02:23:01;;;;;;;42.27;24.33;;;6.70;95.90;;;;;;5052639;28;20179;-87
2021/11/24 02:25:26;;;;;;;40.97;24.70;;;6.70;95.90;;;;;;5052435;28;20172;-87
2021/11/24 02:27:52;;;;;;;39.17;24.20;;;6.70;95.90;;;;;;5052313;28;20275;-87
2021/11/24 02:30:18;;;;;;;47.03;25.13;;;6.70;95.90;;;;;;5052657;28;20199;-87
2021/11/24 02:32:43;;;;;;;38.93;24.67;;;6.70;95.90;;;;;;5052426;28;20348;-87
2021/11/24 02:35:09;;;;;;;40.70;23.93;;;6.70;95.90;;;;;;5052412;28;20208;-87
2021/11/24 02:37:35;;;;;;;49.87;25.83;;;6.70;95.90;;;;;;5052272;28;20223;-87
2021/11/24 02:40:01;;;;;;;40.47;22.90;;;6.70;95.90;;;;;;5052157;28;20195;-87
2021/11/24 02:42:27;;;;;;;50.87;26.20;;;6.70;95.90;;;;;;5053449;28;20585;-87
2021/11/24 02:44:53;;;;;;;42.60;26.67;;;6.70;95.90;;;;;;5053942;28;20164;-87
2021/11/24 02:47:21;;;;;;;49.70;25.97;;;6.70;95.90;;;;;;5052018;28;20171;-87
2021/11/24 02:49:50;;;;;;;41.03;22.60;;;6.80;95.90;;;;;;5052044;28;20206;-87
2021/11/24 02:52:17;;;;;;;39.40;24.00;;;6.80;95.90;;;;;;5053383;28;20576;-87
2021/11/24 02:54:58;;;;;;;43.57;23.33;;;6.80;95.90;;;;;;5053369;28;20194;-87
2021/11/24 02:57:51;;;;;;;38.60;23.27;;;6.80;95.90;;;;;;5051982;28;20271;-87
2021/11/24 03:00:18;;;;;;;41.87;23.10;;;6.80;95.90;;;;;;5052128;28;20747;-87
2021/11/24 03:02:45;;;;;;;37.47;23.23;;;6.90;95.90;;;;;;5052015;28;20176;-87
2021/11/24 03:05:12;;;;;;;39.90;22.70;;;6.90;95.90;;;;;;5053273;28;20196;-87
2021/11/24 03:07:38;;;;;;;37.07;22.17;;;6.90;95.90;;;;;;5051978;28;20230;-87
2021/11/24 03:10:05;;;;;;;38.27;23.27;;;6.90;95.90;;;;;;5051702;28;20212;-87
2021/11/24 03:12:31;;;;;;;44.33;23.33;;;7.00;95.90;;;;;;5053093;28;20200;-87
2021/11/24 03:14:57;;;;;;;37.20;21.10;;;7.00;95.90;;;;;;5051971;28;20172;-87
2021/11/24 03:17:23;;;;;;;35.43;22.20;;;7.00;95.90;;;;;;5051709;28;20226;-87
2021/11/24 03:19:48;;;;;;;41.00;22.17;;;7.00;95.90;;;;;;5051701;28;20187;-87
2021/11/24 03:22:21;;;;;;;41.50;22.40;;;7.00;95.90;;;;;;5053054;28;20251;-87
2021/11/24 03:24:55;;;;;;;43.07;22.60;;;7.00;95.90;;;;;;5053106;28;20159;-87
2021/11/24 03:27:29;;;;;;;42.70;22.33;;;7.00;95.90;;;;;;5053099;28;20235;-87
2021/11/24 03:29:58;;;;;;;38.63;21.57;;;7.00;95.90;;;;;;5051738;28;20195;-87
2021/11/24 03:32:25;;;;;;;38.37;22.60;;;7.00;95.90;;;;;;5052949;28;20543;-87
2021/11/24 03:34:50;;;;;;;42.23;22.23;;;7.00;95.90;;;;;;5051595;28;20259;-87
2021/11/24 03:37:17;;;;;;;40.90;21.37;;;7.00;95.90;;;;;;5053361;28;20719;-87
2021/11/24 03:39:44;;;;;;;38.10;22.00;;;7.00;95.80;;;;;;5051643;28;20223;-87
2021/11/24 03:42:10;;;;;;;41.23;23.30;;;7.00;95.90;;;;;;5051928;28;20176;-87
2021/11/24 03:44:35;;;;;;;44.13;23.40;;;7.00;95.90;;;;;;5052847;28;20194;-87
2021/11/24 03:47:01;;;;;;;43.90;25.03;;;7.00;95.90;;;;;;5052799;28;20214;-87
2021/11/24 03:49:27;;;;;;;44.07;25.27;;;7.00;95.90;;;;;;5051619;28;20223;-87
2021/11/24 03:51:53;;;;;;;42.80;25.20;;;7.00;95.90;;;;;;5051569;28;20206;-87
2021/11/24 03:54:18;;;;;;;43.67;25.70;;;7.00;95.90;;;;;;5051556;28;20186;-87
2021/11/24 03:56:44;;;;;;;47.43;25.53;;;7.00;95.80;;;;;;5052809;28;20602;-87
2021/11/24 03:59:09;;;;;;;42.10;24.77;;;7.10;95.80;;;;;;5051331;28;20239;-87
2021/11/24 04:01:35;;;;;;;38.87;24.83;;;7.00;95.80;;;;;;5052625;28;20226;-87
2021/11/24 04:04:01;;;;;;;37.53;23.70;;;7.10;95.80;;;;;;5051459;28;20176;-87
2021/11/24 04:06:29;;;;;;;38.50;22.97;;;7.00;95.80;;;;;;5051530;28;20179;-87
2021/11/24 04:08:54;;;;;;;36.77;22.47;;;7.10;95.80;;;;;;5051256;28;20586;-87
2021/11/24 04:11:20;;;;;;;35.83;22.83;;;7.00;95.80;;;;;;5051356;28;20263;-87
2021/11/24 04:13:45;;;;;;;35.90;22.10;;;7.00;95.80;;;;;;5051391;28;20218;-87
2021/11/24 04:16:12;;;;;;;36.83;23.60;;;7.00;95.80;;;;;;5051214;28;20230;-87
2021/11/24 04:18:38;;;;;;;30.57;19.60;;;7.00;95.80;;;;;;5051350;28;20238;-87
2021/11/24 04:21:03;;;;;;;30.07;18.93;;;7.00;95.80;;;;;;5055517;28;20563;-87
2021/11/24 04:23:29;;;;;;;30.40;21.10;;;7.10;95.80;;;;;;5054878;28;20194;-87
2021/11/24 04:25:54;;;;;;;31.53;19.87;;;7.10;95.90;;;;;;5056003;28;20176;-87
2021/11/24 04:28:21;;;;;;;33.50;19.80;;;7.10;95.90;;;;;;5054584;28;20211;-87
2021/11/24 04:30:47;;;;;;;31.40;20.50;;;7.00;95.90;;;;;;5054744;28;20176;-87
2021/11/24 04:33:12;;;;;;;29.67;18.27;;;7.00;95.80;;;;;;5054577;28;20186;-87
2021/11/24 04:35:39;;;;;;;31.43;20.03;;;7.00;95.80;;;;;;5055796;28;20200;-87
2021/11/24 04:38:05;;;;;;;29.30;18.87;;;7.00;95.80;;;;;;5054613;28;20179;-87
2021/11/24 04:40:32;;;;;;;33.30;19.47;;;7.00;95.80;;;;;;5054469;28;20763;-87
2021/11/24 04:42:59;;;;;;;33.93;19.87;;;7.00;95.80;;;;;;5056076;28;20233;-87
2021/11/24 04:45:25;;;;;;;36.80;22.13;;;7.00;95.80;;;;;;5054372;28;20627;-87
2021/11/24 04:47:50;;;;;;;32.43;19.87;;;7.00;95.80;;;;;;5055554;28;20172;-87
2021/11/24 04:50:17;;;;;;;32.20;20.33;;;7.00;95.80;;;;;;5055647;28;20219;-87
2021/11/24 04:52:43;;;;;;;31.80;21.10;;;7.00;95.80;;;;;;5055547;28;20172;-87
2021/11/24 04:55:10;;;;;;;39.63;23.10;;;7.10;95.80;;;;;;5055437;28;20234;-87
2021/11/24 04:57:35;;;;;;;36.40;22.87;;;7.00;95.80;;;;;;5055301;28;20220;-87
2021/11/24 05:00:06;;;;;;;40.67;23.23;;;7.10;95.80;;;;;;5055473;28;20188;-87
2021/11/24 05:02:32;;;;;;;36.40;21.90;;;7.00;95.80;;;;;;5054070;28;20187;-87
2021/11/24 05:04:57;;;;;;;33.87;21.17;;;7.00;95.80;;;;;;5055259;28;20168;-87
2021/11/24 05:07:23;;;;;;;30.67;19.83;;;7.00;95.70;;;;;;5055308;28;20176;-87
2021/11/24 05:09:48;;;;;;;30.77;20.77;;;7.00;95.70;;;;;;5053932;28;20212;-87
2021/11/24 05:12:14;;;;;;;40.37;21.63;;;7.00;95.70;;;;;;5054277;28;20180;-87
2021/11/24 05:14:40;;;;;;;41.83;23.20;;;7.00;95.70;;;;;;5055106;28;20199;-87
2021/11/24 05:17:12;;;;;;;43.97;24.70;;;7.00;95.70;;;;;;5053729;28;20227;-87
2021/11/24 05:19:39;;;;;;;44.03;25.03;;;7.00;95.70;;;;;;5053796;28;20196;-87
2021/11/24 05:22:05;;;;;;;45.13;25.07;;;6.90;95.70;;;;;;5055240;28;20219;-87
2021/11/24 05:24:31;;;;;;;43.67;25.37;;;6.90;95.70;;;;;;5053683;28;20183;-87
2021/11/24 05:26:56;;;;;;;44.67;24.97;;;7.00;95.70;;;;;;5054896;28;20176;-87
2021/11/24 05:29:22;;;;;;;46.60;25.07;;;7.00;95.70;;;;;;5054781;28;20271;-87
2021/11/24 05:31:48;;;;;;;48.43;25.47;;;7.00;95.70;;;;;;5053586;28;20206;-87
2021/11/24 05:34:14;;;;;;;43.37;24.73;;;6.90;95.70;;;;;;5054675;28;20175;-87
2021/11/24 05:36:40;;;;;;;44.37;24.80;;;6.90;95.70;;;;;;5053337;28;20297;-87
2021/11/24 05:39:09;;;;;;;43.90;25.00;;;6.90;95.70;;;;;;5053398;28;20214;-87
2021/11/24 05:41:39;;;;;;;33.57;17.97;;;6.80;95.70;;;;;;5053361;28;20208;-87
2021/11/24 05:44:25;;;;;;;36.00;20.13;;;6.90;95.70;;;;;;5053522;28;20179;-87
2021/11/24 05:46:58;;;;;;;39.43;21.57;;;6.90;95.70;;;;;;5054580;28;20234;-87
2021/11/24 05:49:25;;;;;;;40.83;23.00;;;6.90;95.80;;;;;;5053170;28;20203;-87
2021/11/24 05:51:53;;;;;;;39.43;23.40;;;6.90;95.80;;;;;;5053144;28;20172;-87
2021/11/24 05:54:19;;;;;;;41.17;22.30;;;6.90;95.70;;;;;;5054369;28;20176;-87
2021/11/24 05:56:45;;;;;;;42.47;23.33;;;6.90;95.70;;;;;;5052981;28;20202;-87
2021/11/24 05:59:14;;;;;;;39.60;20.10;;;6.90;95.70;;;;;;5054199;28;20540;-87
2021/11/24 06:01:39;;;;;;;39.30;21.50;;;6.80;95.70;;;;;;5052914;28;20443;-88
2021/11/24 06:04:05;;;;;;;34.67;21.67;;;6.80;95.70;;;;;;5052888;28;20171;-88
2021/11/24 06:06:33;;;;;;;41.00;22.83;;;6.70;95.60;;;;;;5052869;28;20656;-88
2021/11/24 06:08:59;;;;;;;39.63;21.77;;;6.70;95.60;;;;;;5052769;28;20622;-87
2021/11/24 06:11:25;;;;;;;38.47;22.10;;;6.60;95.60;;;;;;5052873;28;20180;-87
2021/11/24 06:13:51;;;;;;;32.50;21.13;;;6.60;95.60;;;;;;5054020;28;20176;-87
2021/11/24 06:16:17;;;;;;;37.27;22.23;;;6.60;95.60;;;;;;5053750;28;20191;-87
2021/11/24 06:18:43;;;;;;;37.43;22.50;;;6.60;95.50;;;;;;5052628;28;20196;-87
2021/11/24 06:21:10;;;;;;;36.90;21.27;;;6.60;95.50;;;;;;5053242;28;20226;-87
2021/11/24 06:23:39;;;;;;;40.70;23.00;;;6.60;95.50;;;;;;5053851;28;20266;-87
2021/11/24 06:26:07;;;;;;;38.20;24.27;;;6.60;95.50;;;;;;5052543;28;20183;-87
2021/11/24 06:28:33;;;;;;;40.07;24.10;;;6.70;95.50;;;;;;5052486;28;20230;-87
2021/11/24 06:30:59;;;;;;;47.70;26.07;;;6.70;95.50;;;;;;5052400;28;20222;-87
2021/11/24 06:33:26;;;;;;;52.80;26.00;;;6.70;95.50;;;;;;5052372;28;20176;-87
2021/11/24 06:35:52;;;;;;;48.07;26.50;;;6.70;95.50;;;;;;5052311;28;20271;-87
2021/11/24 06:38:17;;;;;;;46.43;25.80;;;6.70;95.50;;;;;;5053478;28;20169;-87
2021/11/24 06:40:44;;;;;;;47.97;28.07;;;6.70;95.50;;;;;;5052206;28;20195;-87
2021/11/24 06:43:10;;;;;;;47.53;27.40;;;6.70;95.50;;;;;;5051749;28;20592;-87
2021/11/24 06:45:36;;;;;;;44.80;26.57;;;6.70;95.50;;;;;;5052465;28;20172;-87
2021/11/24 06:48:02;;;;;;;45.33;27.10;;;6.70;95.50;;;;;;5052229;28;20572;-87
2021/11/24 06:50:29;;;;;;;44.47;27.70;;;6.70;95.50;;;;;;5053434;28;20192;-87
2021/11/24 06:52:55;;;;;;;42.77;25.57;;;6.70;95.50;;;;;;5053467;28;20204;-88
2021/11/24 06:55:20;;;;;;;44.93;26.53;;;6.70;95.50;;;;;;5052415;28;20702;-87
2021/11/24 06:57:46;;;;;;;43.17;26.67;;;6.60;95.50;;;;;;5053300;28;20288;-87
2021/11/24 07:00:12;;;;;;;45.73;26.30;;;6.70;95.50;;;;;;5053273;28;20216;-87
2021/11/24 07:02:38;;;;;;;43.13;25.27;;;6.70;95.50;;;;;;5052115;28;20620;-87
2021/11/24 07:05:05;;;;;;;42.73;25.73;;;6.70;95.40;;;;;;5053283;28;20196;-88
2021/11/24 07:07:31;;;;;;;44.60;27.10;;;6.70;95.40;;;;;;5053287;28;20528;-88
2021/11/24 07:09:57;;;;;;;37.20;22.87;;;6.70;95.40;;;;;;5109006;22;20231;-87
2021/11/24 07:12:25;;;;;;;40.37;24.70;;;6.60;95.40;;;;;;5035304;28;20238;-86
2021/11/24 07:14:53;;;;;;;45.37;24.83;;;6.70;95.40;;;;;;5051726;28;20183;-87
2021/11/24 07:17:18;;;;;;;38.00;25.30;;;6.60;95.40;;;;;;5052982;28;20188;-87
2021/11/24 07:19:44;;;;;;;49.93;25.80;;;6.60;95.30;;;;;;5053073;28;20598;-86
2021/11/24 07:22:10;;;;;;;46.10;26.47;;;6.60;95.40;;;;;;5035641;28;20655;-88
2021/11/24 07:24:35;;;;;;;44.67;26.20;;;6.70;95.40;;;;;;5054000;28;20549;-88
2021/11/24 07:27:01;;;;;;;49.57;30.40;;;6.60;95.30;;;;;;5035912;28;20183;-88
2021/11/24 07:29:27;;;;;;;47.63;27.10;;;6.70;95.40;;;;;;5053347;28;20218;-87
2021/11/24 07:31:53;;;;;;;52.20;28.00;;;6.70;95.30;;;;;;5036902;28;20176;-88
2021/11/24 07:34:18;;;;;;;44.60;26.93;;;6.70;95.30;;;;;;5036396;28;20531;-87
2021/11/24 07:36:44;;;;;;;50.67;28.00;;;6.70;95.30;;;;;;5054354;28;20196;-89
2021/11/24 07:39:10;;;;;;;47.70;27.17;;;6.70;95.40;;;;;;5036483;28;20253;-87
2021/11/24 07:41:36;;;;;;;52.00;29.37;;;6.70;95.40;;;;;;5053129;28;20175;-87
2021/11/24 07:44:02;;;;;;;47.67;26.17;;;6.70;95.40;;;;;;5052929;28;20270;-87
2021/11/24 07:46:27;;;;;;;60.03;31.97;;;6.60;95.40;;;;;;5034828;28;20197;-87
2021/11/24 07:48:53;;;;;;;56.30;31.50;;;6.60;95.50;;;;;;5052783;28;20548;-88
2021/11/24 07:51:19;;;;;;;54.77;29.97;;;6.60;95.50;;;;;;5035233;28;20176;-87
2021/11/24 07:53:46;;;;;;;53.40;29.67;;;6.70;95.50;;;;;;5035227;28;20176;-88
2021/11/24 07:56:12;;;;;;;45.13;27.30;;;6.70;95.60;;;;;;5038307;28;20278;-89
2021/11/24 07:58:40;;;;;;;46.80;24.50;;;6.70;95.60;;;;;;5039085;28;20617;-88
2021/11/24 08:01:07;;;;;;;47.17;27.80;;;6.60;95.60;;;;;;5038926;28;20176;-88
2021/11/24 08:03:33;;;;;;;43.33;25.47;;;6.60;95.60;;;;;;5056773;28;20192;-88
2021/11/24 08:05:59;;;;;;;48.20;26.23;;;6.60;95.70;;;;;;5038824;28;20211;-87
2021/11/24 08:08:24;;;;;;;42.87;24.27;;;6.70;95.70;;;;;;5056820;28;20589;-88
2021/11/24 08:10:50;;;;;;;49.07;27.03;;;6.70;95.70;;;;;;5038564;28;20215;-88
2021/11/24 08:13:19;;;;;;;48.87;25.43;;;6.70;95.60;;;;;;5038854;28;20179;-87
2021/11/24 08:15:45;;;;;;;46.70;26.40;;;6.70;95.60;;;;;;5038558;28;20172;-88
2021/11/24 08:18:10;;;;;;;39.97;20.07;;;6.70;95.60;;;;;;5038560;28;20179;-88
2021/11/24 08:20:36;;;;;;;44.43;25.40;;;6.70;95.50;;;;;;5038765;28;20249;-89
2021/11/24 08:23:02;;;;;;;34.03;18.20;;;6.70;95.50;;;;;;5038683;28;20180;-87
2021/11/24 08:25:28;;;;;;;44.43;26.60;;;6.70;95.40;;;;;;5038723;28;20175;-87
2021/11/24 08:27:54;;;;;;;46.53;26.80;;;6.80;95.50;;;;;;5039561;28;20203;-87
2021/11/24 08:30:20;;;;;;;45.67;25.60;;;6.80;95.40;;;;;;5039242;28;20234;-87
2021/11/24 08:32:46;;;;;;;44.43;23.90;;;6.80;95.40;;;;;;5056661;28;20176;-87
2021/11/24 08:35:12;;;;;;;45.20;24.37;;;6.80;95.40;;;;;;5056718;28;20178;-88
2021/11/24 08:37:37;;;;;;;48.87;25.60;;;6.80;95.40;;;;;;5038955;28;20199;-87
2021/11/24 08:40:04;;;;;;;47.53;24.57;;;6.80;95.30;;;;;;5038499;28;20664;-86
2021/11/24 08:42:30;;;;;;;44.53;23.67;;;6.80;95.30;;;;;;5056826;28;20169;-87
2021/11/24 08:44:56;;;;;;;40.03;22.33;;;6.90;95.30;;;;;;5055891;28;20255;-85
2021/11/24 08:47:21;;;;;;;40.63;23.67;;;6.90;95.30;;;;;;5038019;28;20318;-87
2021/11/24 08:49:47;;;;;;;41.30;23.43;;;6.90;95.30;;;;;;5037869;28;20252;-87
2021/11/24 08:52:13;;;;;;;40.17;22.40;;;6.90;95.30;;;;;;5055747;28;20255;-86
2021/11/24 08:54:39;;;;;;;44.63;23.03;;;6.90;95.20;;;;;;5055659;28;20544;-86
2021/11/24 08:57:05;;;;;;;43.97;23.57;;;7.00;95.30;;;;;;5037594;28;20599;-87
2021/11/24 08:59:31;;;;;;;45.67;23.43;;;7.10;95.20;;;;;;5055722;28;20191;-86
2021/11/24 09:01:57;;;;;;;38.77;21.43;;;7.10;95.30;;;;;;5037747;28;20180;-85
2021/11/24 09:04:22;;;;;;;41.70;21.83;;;7.10;95.20;;;;;;5055577;28;20178;-87
2021/11/24 09:06:48;;;;;;;39.97;21.40;;;7.10;95.20;;;;;;5037076;28;20176;-86
2021/11/24 09:09:14;;;;;;;37.73;21.07;;;7.10;95.10;;;;;;5055252;28;20215;-86
2021/11/24 09:11:39;;;;;;;35.33;19.30;;;7.10;95.10;;;;;;5037589;28;20195;-86
2021/11/24 09:14:05;;;;;;;33.57;19.90;;;7.10;95.10;;;;;;5055345;28;20184;-86
2021/11/24 09:16:31;;;;;;;34.50;17.60;;;7.10;95.00;;;;;;5055429;28;20192;-86
2021/11/24 09:18:57;;;;;;;29.67;17.40;;;7.10;95.00;;;;;;5055080;28;20180;-86
2021/11/24 09:21:24;;;;;;;28.07;16.27;;;7.10;94.90;;;;;;5037739;28;20197;-87
2021/11/24 09:23:51;;;;;;;25.97;16.47;;;7.20;94.90;;;;;;5037244;28;20190;-87
2021/11/24 09:28:43;;;;;;;29.00;16.83;;;7.30;94.70;;;;;;5055220;28;20258;-87
2021/11/24 09:31:09;;;;;;;24.93;16.73;;;7.30;94.50;;;;;;5055090;28;20172;-87
2021/11/24 09:33:37;;;;;;;25.00;15.07;;;7.30;94.40;;;;;;5036885;28;20173;-85
2021/11/24 09:36:03;;;;;;;21.67;13.67;;;7.30;94.40;;;;;;5054857;28;20245;-86
2021/11/24 09:38:30;;;;;;;22.97;13.67;;;7.40;94.30;;;;;;5036841;28;20176;-85
2021/11/24 09:40:59;;;;;;;21.37;13.50;;;7.40;94.10;;;;;;5055082;28;20178;-86
2021/11/24 09:43:27;;;;;;;19.67;12.10;;;7.50;94.00;;;;;;5036799;28;20172;-86
2021/11/24 09:45:54;;;;;;;17.20;12.03;;;7.50;93.90;;;;;;5036693;28;20636;-85
2021/11/24 09:48:20;;;;;;;18.90;12.87;;;7.50;93.70;;;;;;5036877;28;20195;-85
2021/11/24 09:50:48;;;;;;;19.63;12.37;;;7.60;93.60;;;;;;5054891;28;20656;-86
2021/11/24 09:53:16;;;;;;;16.10;11.13;;;7.50;93.50;;;;;;5054448;28;20213;-86
2021/11/24 09:55:42;;;;;;;14.33;11.83;;;7.60;93.30;;;;;;5036483;28;20169;-85
2021/11/24 09:58:10;;;;;;;16.37;11.37;;;7.70;93.10;;;;;;5054271;28;20176;-86
2021/11/24 10:00:38;;;;;;;15.83;11.50;;;7.80;93.20;;;;;;5054097;28;20195;-86
2021/11/24 10:03:05;;;;;;;14.83;10.60;;;7.80;93.10;;;;;;5036151;28;20238;-87
2021/11/24 10:05:32;;;;;;;13.47;9.27;;;7.90;93.00;;;;;;5053937;28;20194;-86
2021/11/24 10:07:59;;;;;;;11.13;7.20;;;7.90;92.80;;;;;;5036088;28;20220;-86
2021/11/24 10:10:25;;;;;;;15.60;9.50;;;7.90;92.30;;;;;;5035905;28;20220;-86
2021/11/24 10:12:51;;;;;;;13.27;9.00;;;7.90;92.10;;;;;;5036087;28;20184;-86
2021/11/24 10:15:40;;;;;;;12.27;8.47;;;7.90;92.30;;;;;;5054106;28;20653;-86
2021/11/24 10:18:13;;;;;;;12.47;9.53;;;8.00;92.60;;;;;;5035100;28;20615;-86
2021/11/24 10:20:53;;;;;;;10.37;8.20;;;7.90;92.80;;;;;;5035820;28;20195;-86
2021/11/24 10:23:33;;;;;;;8.80;5.87;;;7.90;92.40;;;;;;5053651;28;20226;-85
2021/11/24 10:26:33;;;;;;;12.20;9.33;;;7.80;92.20;;;;;;5035790;28;20161;-86
2021/11/24 10:29:13;;;;;;;13.70;10.43;;;7.90;92.40;;;;;;5000238;28;20208;-86
2021/11/24 10:31:40;;;;;;;11.67;10.17;;;7.90;92.50;;;;;;5036007;28;20531;-85
2021/11/24 10:34:16;;;;;;;12.80;9.43;;;8.00;92.50;;;;;;5035664;28;20266;-86
2021/11/24 10:36:54;;;;;;;13.07;9.73;;;8.00;92.40;;;;;;5035944;28;20199;-86
2021/11/24 10:39:21;;;;;;;15.20;9.80;;;8.00;92.20;;;;;;5035652;28;20191;-85
2021/11/24 10:41:47;;;;;;;11.20;8.43;;;8.00;92.10;;;;;;5035744;28;20279;-86
2021/11/24 10:44:26;;;;;;;10.10;8.57;;;8.10;92.00;;;;;;5035847;28;20183;-86
2021/11/24 10:46:54;;;;;;;10.17;8.00;;;8.10;91.40;;;;;;5035753;28;20172;-86
2021/11/24 10:49:28;;;;;;;11.03;6.77;;;8.00;91.00;;;;;;5036095;28;20203;-86
2021/11/24 10:51:54;;;;;;;12.87;7.60;;;8.00;90.80;;;;;;5035918;28;20190;-87
2021/11/24 10:54:20;;;;;;;9.53;8.30;;;8.00;90.70;;;;;;5053559;28;20179;-86
2021/11/24 10:57:05;;;;;;;11.73;7.83;;;8.10;90.80;;;;;;5053323;28;20200;-87
2021/11/24 10:59:33;;;;;;;8.27;6.00;;;8.20;90.30;;;;;;5053707;28;20234;-86
2021/11/24 11:02:25;;;;;;;9.33;6.70;;;8.10;90.20;;;;;;5053544;28;20168;-85
2021/11/24 11:05:06;;;;;;;11.40;6.63;;;8.10;90.40;;;;;;5035497;28;20536;-86
2021/11/24 11:07:35;;;;;;;8.83;6.70;;;8.20;90.30;;;;;;5035348;28;20218;-86
2021/11/24 11:10:06;;;;;;;9.80;7.60;;;8.20;90.90;;;;;;5034910;28;20212;-85
2021/11/24 11:12:33;;;;;;;9.80;7.37;;;8.20;90.80;;;;;;5035269;28;20255;-86
2021/11/24 11:15:21;;;;;;;10.17;6.83;;;8.20;90.60;;;;;;5053288;28;20171;-85
2021/11/24 11:17:50;;;;;;;10.87;8.43;;;8.10;90.60;;;;;;5053091;28;20283;-86
2021/11/24 11:20:16;;;;;;;13.80;7.97;;;8.10;90.60;;;;;;5035383;28;20195;-85
2021/11/24 11:22:42;;;;;;;10.63;7.80;;;8.00;90.50;;;;;;5035303;28;20194;-85
2021/11/24 11:25:08;;;;;;;10.47;8.17;;;8.00;90.70;;;;;;5035327;28;20175;-86
2021/11/24 11:27:34;;;;;;;18.10;8.33;;;8.10;91.10;;;;;;5053362;28;20176;-87
2021/11/24 11:30:00;;;;;;;12.00;8.97;;;8.10;90.80;;;;;;5056237;28;20245;-86
2021/11/24 11:32:28;;;;;;;11.00;8.87;;;8.20;90.80;;;;;;5057207;28;20577;-86
2021/11/24 11:34:54;;;;;;;12.37;9.13;;;8.10;90.80;;;;;;5039089;28;20180;-85
2021/11/24 11:37:20;;;;;;;10.63;8.47;;;8.10;90.70;;;;;;5039069;28;20195;-85
2021/11/24 11:39:46;;;;;;;9.90;7.60;;;8.20;90.50;;;;;;5039007;28;20191;-85
2021/11/24 11:42:15;;;;;;;10.33;7.63;;;8.10;90.40;;;;;;5056708;28;20175;-86
2021/11/24 11:44:41;;;;;;;10.70;7.97;;;8.20;90.40;;;;;;5038909;28;20651;-86
2021/11/24 11:47:06;;;;;;;7.63;6.23;;;8.30;90.20;;;;;;5056767;28;20203;-86
2021/11/24 11:49:32;;;;;;;8.10;6.60;;;8.30;89.50;;;;;;5038946;28;20208;-86
2021/11/24 11:52:05;;;;;;;8.40;6.83;;;8.20;88.80;;;;;;5038784;28;20275;-86
2021/11/24 11:54:32;;;;;;;7.13;6.30;;;8.10;88.80;;;;;;5038908;28;20179;-85
2021/11/24 11:57:01;;;;;;;7.17;6.37;;;8.10;88.70;;;;;;5038478;28;20196;-85
2021/11/24 11:59:31;;;;;;;9.13;6.43;;;8.10;89.10;;;;;;5038676;28;20192;-85
2021/11/24 12:02:05;;;;;;;8.63;6.97;;;8.10;89.00;;;;;;5039173;28;20351;-85
2021/11/24 12:04:42;;;;;;;9.20;6.87;;;8.20;89.20;;;;;;5038626;28;20247;-86
2021/11/24 12:07:11;;;;;;;8.40;6.07;;;8.20;89.10;;;;;;5039247;28;20163;-85
2021/11/24 12:09:48;;;;;;;8.53;6.37;;;8.20;89.20;;;;;;5038419;28;20754;-85
2021/11/24 12:12:23;;;;;;;8.37;6.53;;;8.20;89.40;;;;;;5056421;28;20506;-86
2021/11/24 12:14:58;;;;;;;8.13;6.17;;;8.20;89.30;;;;;;5038794;28;20646;-86
2021/11/24 12:19:59;;;;;;;6.97;5.00;;;8.20;89.20;;;;;;5056578;28;20240;-86
2021/11/24 12:22:43;;;;;;;6.47;5.57;;;8.10;88.80;;;;;;5056315;28;20185;-86
2021/11/24 12:25:32;;;;;;;9.63;5.83;;;8.20;89.30;;;;;;5056800;28;20203;-86
2021/11/24 12:27:57;;;;;;;10.53;5.10;;;8.20;88.90;;;;;;5057197;28;20180;-86
2021/11/24 12:30:48;;;;;;;7.30;4.50;;;8.20;89.00;;;;;;5038909;28;20194;-86
2021/11/24 12:33:21;;;;;;;4.23;3.83;;;8.20;88.70;;;;;;5038744;28;20230;-86
2021/11/24 12:35:57;;;;;;;6.60;4.50;;;8.20;89.00;;;;;;5039401;28;20703;-86
2021/11/24 12:38:32;;;;;;;5.80;5.00;;;8.10;88.80;;;;;;5055819;28;20245;-86
2021/11/24 12:41:04;;;;;;;8.17;6.00;;;8.20;88.50;;;;;;5036952;28;20636;-85
2021/11/24 12:43:33;;;;;;;8.93;4.93;;;8.20;88.40;;;;;;5037959;28;20259;-86
2021/11/24 12:46:00;;;;;;;7.00;5.27;;;8.20;88.40;;;;;;5038020;28;20184;-86
2021/11/24 12:48:34;;;;;;;6.50;4.43;;;8.20;88.70;;;;;;5055637;28;20164;-86